Time;durP1;ratioP1;P1;durP2;ratioP2;P2;SDS_P1;SDS_P2;PMS_P1;PMS_P2;Temp;Humidity;BMP_temperature;BMP_pressure;BME280_temperature;BME280_humidity;BME280_pressure;Samples;Min_cycle;Max_cycle;Signal;HPM_P1;HPM_P2
2023/10/13 00:00:41;;;;;;;;;;;;;;;16.36;100.00;101219.09;5045406;28;19924;-72
2023/10/13 00:03:14;;;;;;;;;;;;;;;16.36;100.00;101224.53;5046912;28;20275;-72
2023/10/13 00:05:41;;;;;;;;;;;;;;;16.39;100.00;101219.66;5030952;28;19952;-71
2023/10/13 00:08:06;;;;;;;;;;;;;;;16.36;100.00;101203.69;5027913;28;20276;-71
2023/10/13 00:10:33;;;;;;;;;;;;;;;16.39;100.00;101206.09;5015848;28;19966;-72
2023/10/13 00:13:09;;;;;;;;;;;;;;;16.36;100.00;101200.13;5033301;28;19927;-72
2023/10/13 00:15:52;;;;;;;;;;;;;;;16.36;100.00;101189.28;5033781;28;20286;-71
2023/10/13 00:18:19;;;;;;;;;;;;;;;16.38;100.00;101195.44;5051108;28;20015;-72
2023/10/13 00:20:49;;;;;;;;;;;;;;;16.41;100.00;101198.69;5059955;28;20482;-72
2023/10/13 00:23:14;;;;;;;;;;;;;;;16.40;100.00;101201.56;5041575;28;19982;-74
2023/10/13 00:25:43;;;;;;;;;;;;;;;16.42;100.00;101197.69;5019113;28;19955;-71
2023/10/13 00:28:09;;;;;;;;;;;;;;;16.39;100.00;101191.72;5039168;28;19924;-71
2023/10/13 00:30:34;;;;;;;;;;;;;;;16.42;100.00;101184.13;5031977;28;19957;-71
2023/10/13 00:32:59;;;;;;;;;;;;;;;16.37;100.00;101185.59;5057248;28;19997;-70
2023/10/13 00:35:42;;;;;;;;;;;;;;;16.34;100.00;101187.59;5057747;28;19924;-70
2023/10/13 00:38:13;;;;;;;;;;;;;;;16.38;100.00;101179.16;5054109;28;20458;-74
2023/10/13 00:43:31;;;;;;;;;;;;;;;16.34;100.00;101178.59;5032677;28;20370;-73
2023/10/13 00:46:33;;;;;;;;;;;;;;;16.34;100.00;101182.16;5036360;28;20418;-72
2023/10/13 00:48:54;;;;;;;;;;;;;;;16.33;100.00;101168.75;5033872;28;19931;-72
2023/10/13 00:51:32;;;;;;;;;;;;;;;16.28;100.00;101169.22;5037650;28;20398;-71
2023/10/13 00:53:58;;;;;;;;;;;;;;;16.31;100.00;101163.50;5053666;28;20015;-71
2023/10/13 00:56:27;;;;;;;;;;;;;;;16.29;100.00;101170.06;5052000;28;20274;-72
2023/10/13 00:58:53;;;;;;;;;;;;;;;16.16;100.00;101146.00;5034101;28;20035;-71
2023/10/13 01:01:18;;;;;;;;;;;;;;;16.31;100.00;101162.63;5052211;28;19924;-71
2023/10/13 01:03:55;;;;;;;;;;;;;;;16.27;100.00;101161.25;5056669;28;20485;-71
2023/10/13 01:06:20;;;;;;;;;;;;;;;16.25;100.00;101150.53;5038222;28;20019;-70
2023/10/13 01:08:52;;;;;;;;;;;;;;;16.25;100.00;101152.41;5037261;28;19924;-69
2023/10/13 01:11:18;;;;;;;;;;;;;;;16.23;100.00;101151.72;5055504;28;19962;-75
2023/10/13 01:13:43;;;;;;;;;;;;;;;16.24;100.00;101151.53;5038352;28;19924;-71
2023/10/13 01:16:08;;;;;;;;;;;;;;;16.22;100.00;101144.59;5037133;28;19985;-73
2023/10/13 01:18:47;;;;;;;;;;;;;;;16.19;100.00;101138.47;5052398;28;19920;-71
2023/10/13 01:21:15;;;;;;;;;;;;;;;16.20;100.00;101136.59;5041277;28;20065;-71
2023/10/13 01:23:42;;;;;;;;;;;;;;;16.16;100.00;101132.47;5058390;28;19924;-71
2023/10/13 01:26:07;;;;;;;;;;;;;;;16.17;100.00;101134.16;5038389;28;19928;-72
2023/10/13 01:28:44;;;;;;;;;;;;;;;16.15;100.00;101128.91;5038100;28;19920;-72
2023/10/13 01:31:11;;;;;;;;;;;;;;;16.10;100.00;101138.50;5041380;28;19926;-72
2023/10/13 01:33:36;;;;;;;;;;;;;;;16.10;100.00;101133.09;5049356;28;19927;-73
2023/10/13 01:36:06;;;;;;;;;;;;;;;16.08;100.00;101121.53;5030313;28;19979;-72
2023/10/13 01:38:33;;;;;;;;;;;;;;;16.07;100.00;101120.66;5034595;28;20251;-74
2023/10/13 01:40:58;;;;;;;;;;;;;;;16.07;100.00;101117.13;5029931;28;19931;-73
2023/10/13 01:43:24;;;;;;;;;;;;;;;16.07;100.00;101114.41;5034557;28;19924;-71
2023/10/13 01:45:53;;;;;;;;;;;;;;;16.04;100.00;101102.00;5054027;28;19954;-71
2023/10/13 01:48:21;;;;;;;;;;;;;;;16.04;100.00;101102.88;5056985;28;19928;-71
2023/10/13 01:50:48;;;;;;;;;;;;;;;16.02;100.00;101104.88;5029968;28;19920;-71
2023/10/13 01:53:17;;;;;;;;;;;;;;;16.03;100.00;101100.31;5033435;28;19982;-72
2023/10/13 01:55:45;;;;;;;;;;;;;;;16.01;100.00;101095.06;5028593;28;19925;-70
2023/10/13 01:58:14;;;;;;;;;;;;;;;16.05;100.00;101087.47;5033196;28;19920;-70
2023/10/13 02:00:41;;;;;;;;;;;;;;;16.07;100.00;101085.47;5032941;28;20412;-72
2023/10/13 02:03:14;;;;;;;;;;;;;;;16.05;100.00;101090.19;5051551;28;19968;-72
2023/10/13 02:05:39;;;;;;;;;;;;;;;16.06;100.00;101082.91;5052522;28;20467;-70
2023/10/13 02:08:05;;;;;;;;;;;;;;;16.04;100.00;101070.38;5052084;28;20271;-71
2023/10/13 02:10:31;;;;;;;;;;;;;;;16.03;100.00;101079.50;5030974;28;19943;-73
2023/10/13 02:12:56;;;;;;;;;;;;;;;15.99;100.00;101074.56;5033648;28;20278;-72
2023/10/13 02:15:22;;;;;;;;;;;;;;;16.01;100.00;101070.69;5048691;28;20405;-71
2023/10/13 02:17:51;;;;;;;;;;;;;;;16.01;100.00;101061.72;5046918;28;20431;-72
2023/10/13 02:20:17;;;;;;;;;;;;;;;16.01;100.00;101057.13;5035792;28;20022;-71
2023/10/13 02:22:51;;;;;;;;;;;;;;;16.01;100.00;101054.44;5033881;28;20383;-71
2023/10/13 02:25:18;;;;;;;;;;;;;;;15.98;100.00;101057.44;5033322;28;20290;-70
2023/10/13 02:27:43;;;;;;;;;;;;;;;15.95;100.00;101051.47;5030233;28;19928;-71
2023/10/13 02:30:14;;;;;;;;;;;;;;;15.94;100.00;101042.47;5033026;28;19921;-71
2023/10/13 02:32:43;;;;;;;;;;;;;;;15.98;100.00;101051.19;5033701;28;20328;-70
2023/10/13 02:35:15;;;;;;;;;;;;;;;15.78;100.00;101018.72;5048428;28;19931;-72
2023/10/13 02:37:43;;;;;;;;;;;;;;;15.89;100.00;101040.25;5052614;28;20377;-72
2023/10/13 02:40:08;;;;;;;;;;;;;;;15.87;100.00;101047.66;5035632;28;19928;-72
2023/10/13 02:42:33;;;;;;;;;;;;;;;15.88;100.00;101041.25;5014878;28;19978;-72
2023/10/13 02:44:59;;;;;;;;;;;;;;;15.87;100.00;101031.41;5049088;28;19916;-73
2023/10/13 02:47:26;;;;;;;;;;;;;;;15.83;100.00;101013.72;5033964;28;20359;-71
2023/10/13 02:49:51;;;;;;;;;;;;;;;15.77;100.00;101014.31;5049933;28;19925;-71
2023/10/13 02:52:16;;;;;;;;;;;;;;;15.82;100.00;101022.84;5030206;28;20804;-73
2023/10/13 02:54:50;;;;;;;;;;;;;;;15.81;100.00;101004.91;5031455;28;20011;-72
2023/10/13 02:57:16;;;;;;;;;;;;;;;15.75;100.00;100987.41;5033718;28;19920;-72
2023/10/13 02:59:46;;;;;;;;;;;;;;;15.77;100.00;100975.56;5017558;28;19924;-71
2023/10/13 03:02:17;;;;;;;;;;;;;;;15.81;100.00;100971.56;5016330;28;20333;-73
2023/10/13 03:04:44;;;;;;;;;;;;;;;15.80;100.00;100970.69;5023227;28;19921;-70
2023/10/13 03:07:09;;;;;;;;;;;;;;;15.77;100.00;100965.59;5034002;28;19924;-72
2023/10/13 03:09:37;;;;;;;;;;;;;;;15.80;100.00;100954.47;5033713;28;19920;-75
2023/10/13 03:12:03;;;;;;;;;;;;;;;15.80;100.00;100946.34;5035809;28;19931;-73
2023/10/13 03:14:32;;;;;;;;;;;;;;;15.84;100.00;100938.78;5017324;28;19921;-74
2023/10/13 03:17:02;;;;;;;;;;;;;;;15.87;100.00;100931.25;5034756;28;19923;-72
2023/10/13 03:19:32;;;;;;;;;;;;;;;15.88;100.00;100929.41;5020457;28;19924;-73
2023/10/13 03:22:06;;;;;;;;;;;;;;;15.88;100.00;100922.09;5052590;28;19924;-72
2023/10/13 03:24:34;;;;;;;;;;;;;;;15.85;100.00;100916.97;5034640;28;20078;-71
2023/10/13 03:27:07;;;;;;;;;;;;;;;15.89;100.00;100918.41;5035548;28;19920;-72
2023/10/13 03:29:34;;;;;;;;;;;;;;;15.88;100.00;100902.31;5022122;28;20003;-69
2023/10/13 03:32:06;;;;;;;;;;;;;;;15.86;100.00;100891.63;5033998;28;19956;-72
2023/10/13 03:34:32;;;;;;;;;;;;;;;15.89;100.00;100885.91;5032737;28;20387;-71
2023/10/13 03:36:57;;;;;;;;;;;;;;;15.93;100.00;100880.19;5049225;28;19964;-71
2023/10/13 03:39:29;;;;;;;;;;;;;;;15.92;100.00;100881.19;5028577;28;20006;-72
2023/10/13 03:41:56;;;;;;;;;;;;;;;15.87;100.00;100874.38;5028860;28;20380;-71
2023/10/13 03:44:21;;;;;;;;;;;;;;;15.91;100.00;100863.25;5026835;28;20511;-73
2023/10/13 03:46:47;;;;;;;;;;;;;;;15.88;100.00;100862.53;5032632;28;19989;-72
2023/10/13 03:49:14;;;;;;;;;;;;;;;15.89;100.00;100845.31;5009530;28;20282;-71
2023/10/13 03:51:39;;;;;;;;;;;;;;;15.97;100.00;100843.69;5047323;28;19932;-75
2023/10/13 03:54:08;;;;;;;;;;;;;;;15.96;100.00;100829.28;5029502;28;19920;-71
2023/10/13 03:56:40;;;;;;;;;;;;;;;16.02;100.00;100825.13;5045842;28;19924;-73
2023/10/13 03:59:06;;;;;;;;;;;;;;;16.02;100.00;100814.28;5027786;28;19934;-75
2023/10/13 04:01:45;;;;;;;;;;;;;;;16.02;100.00;100822.41;5024351;28;19967;-75
2023/10/13 04:04:11;;;;;;;;;;;;;;;16.03;100.00;100803.28;5013225;28;20015;-74
2023/10/13 04:17:25;;;;;;;;;;;;;;;16.08;100.00;100759.47;5015422;28;19944;-74
2023/10/13 04:28:50;;;;;;;;;;;;;;;16.18;100.00;100716.91;5049909;28;19931;-76
2023/10/13 04:38:59;;;;;;;;;;;;;;;16.35;100.00;100692.59;5027348;28;20434;-75
2023/10/13 04:41:31;;;;;;;;;;;;;;;16.38;100.00;100689.56;5036438;28;20913;-78
2023/10/13 04:43:57;;;;;;;;;;;;;;;16.37;100.00;100684.34;5034259;28;19926;-77
2023/10/13 04:46:39;;;;;;;;;;;;;;;16.41;100.00;100683.00;5033521;28;20055;-82
2023/10/13 04:49:09;;;;;;;;;;;;;;;16.43;100.00;100689.09;5029983;28;20378;-75
2023/10/13 04:51:58;;;;;;;;;;;;;;;16.47;100.00;100664.22;5028608;28;19931;-75
2023/10/13 04:54:32;;;;;;;;;;;;;;;16.46;100.00;100664.38;5029119;28;19978;-74
2023/10/13 05:02:43;;;;;;;;;;;;;;;16.58;100.00;100665.81;5033632;28;19939;-78
2023/10/13 05:46:35;;;;;;;;;;;;;;;16.76;100.00;100597.94;5034916;28;19963;-75
2023/10/13 06:29:49;;;;;;;;;;;;;;;16.82;100.00;100626.22;5033588;28;20404;-80
2023/10/13 06:32:16;;;;;;;;;;;;;;;16.92;100.00;100618.81;5034610;28;19920;-75
2023/10/13 06:34:47;;;;;;;;;;;;;;;16.90;100.00;100623.53;5018694;28;19962;-76
2023/10/13 06:37:22;;;;;;;;;;;;;;;16.89;100.00;100624.56;5035046;28;19928;-75
2023/10/13 06:39:56;;;;;;;;;;;;;;;16.91;100.00;100621.66;5030590;28;19936;-77
2023/10/13 06:42:28;;;;;;;;;;;;;;;16.91;100.00;100625.25;5032904;28;19927;-74
2023/10/13 06:44:54;;;;;;;;;;;;;;;16.91;100.00;100619.81;5051749;28;20103;-77
2023/10/13 06:47:20;;;;;;;;;;;;;;;16.89;100.00;100629.97;5021150;28;20390;-76
2023/10/13 06:49:45;;;;;;;;;;;;;;;16.88;100.00;100619.28;5024406;28;20367;-74
2023/10/13 06:52:11;;;;;;;;;;;;;;;16.91;100.00;100627.09;5033232;28;19920;-76
2023/10/13 06:54:38;;;;;;;;;;;;;;;16.86;100.00;100630.31;5030545;28;20463;-75
2023/10/13 06:57:06;;;;;;;;;;;;;;;16.89;100.00;100629.13;5052405;28;19925;-73
2023/10/13 06:59:36;;;;;;;;;;;;;;;16.87;100.00;100636.56;5031720;28;20490;-76
2023/10/13 07:02:06;;;;;;;;;;;;;;;16.87;100.00;100623.00;5034329;28;19962;-77
2023/10/13 07:04:31;;;;;;;;;;;;;;;16.82;100.00;100628.94;5028965;28;19924;-79
2023/10/13 07:06:56;;;;;;;;;;;;;;;16.84;100.00;100626.91;5048493;28;20216;-75
2023/10/13 07:12:01;;;;;;;;;;;;;;;16.83;100.00;100622.50;5050833;28;20457;-80
2023/10/13 07:14:26;;;;;;;;;;;;;;;16.81;100.00;100629.13;5049543;28;19921;-76
2023/10/13 07:16:59;;;;;;;;;;;;;;;16.85;100.00;100622.31;5051723;28;19924;-75
2023/10/13 07:19:27;;;;;;;;;;;;;;;16.87;100.00;100636.56;5052521;28;19924;-75
2023/10/13 07:21:59;;;;;;;;;;;;;;;16.86;100.00;100624.88;5017747;28;19943;-74
2023/10/13 07:24:31;;;;;;;;;;;;;;;16.88;100.00;100627.41;5029520;28;20369;-74
2023/10/13 07:27:05;;;;;;;;;;;;;;;16.89;100.00;100619.13;5050278;28;20034;-76
2023/10/13 07:29:33;;;;;;;;;;;;;;;16.93;100.00;100612.38;5018959;28;19949;-77
2023/10/13 07:31:59;;;;;;;;;;;;;;;16.93;100.00;100614.22;5033203;28;19921;-75
2023/10/13 07:34:24;;;;;;;;;;;;;;;16.96;100.00;100611.19;5009556;28;20014;-74
2023/10/13 07:36:51;;;;;;;;;;;;;;;17.03;100.00;100611.38;5043438;28;19924;-75
2023/10/13 07:39:24;;;;;;;;;;;;;;;17.06;100.00;100609.19;5027057;28;19925;-74
2023/10/13 07:42:03;;;;;;;;;;;;;;;17.10;100.00;100612.41;5033331;28;19927;-76
2023/10/13 07:44:31;;;;;;;;;;;;;;;17.15;100.00;100607.34;5016273;28;20023;-77
2023/10/13 07:47:02;;;;;;;;;;;;;;;17.17;100.00;100609.88;5027082;28;19924;-76
2023/10/13 07:49:30;;;;;;;;;;;;;;;17.22;100.00;100610.22;5028983;28;19928;-74
2023/10/13 07:52:00;;;;;;;;;;;;;;;17.23;100.00;100604.59;5025266;28;20111;-74
2023/10/13 07:54:26;;;;;;;;;;;;;;;17.27;100.00;100601.56;5016624;28;19992;-77
2023/10/13 07:56:53;;;;;;;;;;;;;;;17.32;100.00;100602.75;5032434;28;19920;-75
2023/10/13 07:59:22;;;;;;;;;;;;;;;17.36;100.00;100606.81;5049219;28;19933;-75
2023/10/13 08:01:47;;;;;;;;;;;;;;;17.38;100.00;100593.09;5032744;28;19969;-73
2023/10/13 08:04:14;;;;;;;;;;;;;;;17.43;100.00;100598.00;5028005;28;20773;-72
2023/10/13 08:06:43;;;;;;;;;;;;;;;17.48;100.00;100591.03;5032433;28;19920;-74
2023/10/13 08:09:29;;;;;;;;;;;;;;;17.48;100.00;100585.59;5034835;28;19928;-75
2023/10/13 08:11:54;;;;;;;;;;;;;;;17.52;100.00;100580.69;5049784;28;20490;-73
2023/10/13 08:14:23;;;;;;;;;;;;;;;17.58;100.00;100592.72;5017815;28;20310;-78
2023/10/13 08:16:59;;;;;;;;;;;;;;;17.64;100.00;100586.59;5048752;28;19952;-75
2023/10/13 08:19:32;;;;;;;;;;;;;;;17.72;100.00;100581.19;5017333;28;19985;-75
2023/10/13 08:21:58;;;;;;;;;;;;;;;17.76;100.00;100576.22;5016791;28;19951;-75
2023/10/13 08:45:20;;;;;;;;;;;;;;;18.73;100.00;100537.94;5012664;28;19967;-76
2023/10/13 08:47:53;;;;;;;;;;;;;;;18.72;100.00;100533.53;5014399;28;20327;-75
2023/10/13 08:53:09;;;;;;;;;;;;;;;18.75;100.00;100516.00;5032921;28;19924;-75
2023/10/13 08:56:01;;;;;;;;;;;;;;;18.80;100.00;100518.19;5004411;28;19921;-73
2023/10/13 08:58:59;;;;;;;;;;;;;;;18.92;100.00;100521.34;5018772;28;19966;-74
2023/10/13 09:01:34;;;;;;;;;;;;;;;18.96;100.00;100512.66;5017373;28;19928;-76
2023/10/13 09:04:44;;;;;;;;;;;;;;;18.90;100.00;100491.56;5012710;28;19921;-73
2023/10/13 09:07:07;;;;;;;;;;;;;;;18.93;100.00;100499.38;5004417;28;19925;-76
2023/10/13 09:12:13;;;;;;;;;;;;;;;19.06;100.00;100470.75;5014701;28;19921;-72
2023/10/13 09:14:43;;;;;;;;;;;;;;;19.15;100.00;100483.22;5014259;28;20442;-73
2023/10/13 09:19:49;;;;;;;;;;;;;;;19.23;100.00;100485.88;5014618;28;19967;-73
2023/10/13 09:22:26;;;;;;;;;;;;;;;19.21;100.00;100481.63;5015607;28;20449;-74
2023/10/13 09:24:51;;;;;;;;;;;;;;;19.25;100.00;100481.09;5015086;28;19928;-73
2023/10/13 09:27:16;;;;;;;;;;;;;;;19.15;100.00;100475.91;4998711;28;19948;-75
2023/10/13 09:29:44;;;;;;;;;;;;;;;19.10;100.00;100488.38;4997328;28;19921;-75
2023/10/13 09:32:11;;;;;;;;;;;;;;;19.12;100.00;100480.88;5014324;28;19921;-76
2023/10/13 09:34:40;;;;;;;;;;;;;;;19.08;100.00;100480.41;5011736;28;19921;-72
2023/10/13 09:37:06;;;;;;;;;;;;;;;18.84;100.00;100432.47;5014680;28;19921;-74
2023/10/13 09:42:10;;;;;;;;;;;;;;;19.09;100.00;100465.78;5028814;28;21536;-73
2023/10/13 09:44:37;;;;;;;;;;;;;;;19.14;100.00;100479.66;5042924;28;19943;-75
2023/10/13 09:47:07;;;;;;;;;;;;;;;19.22;100.00;100453.38;5028436;28;20229;-74
2023/10/13 09:49:44;;;;;;;;;;;;;;;19.30;100.00;100477.81;5026822;28;20323;-75
2023/10/13 09:52:17;;;;;;;;;;;;;;;19.34;100.00;100466.34;5026571;28;20015;-73
2023/10/13 09:54:44;;;;;;;;;;;;;;;19.40;100.00;100478.38;5026625;28;19921;-74
2023/10/13 09:57:16;;;;;;;;;;;;;;;19.37;100.00;100464.28;5012756;28;19921;-72
2023/10/13 09:59:51;;;;;;;;;;;;;;;19.35;100.00;100461.75;5025381;28;19987;-72
2023/10/13 10:02:26;;;;;;;;;;;;;;;19.37;100.00;100464.28;5024894;28;20023;-73
2023/10/13 10:04:55;;;;;;;;;;;;;;;19.39;100.00;100459.50;5033337;28;19921;-73
2023/10/13 10:07:24;;;;;;;;;;;;;;;19.49;100.00;100462.81;5034076;28;19920;-72
2023/10/13 10:09:56;;;;;;;;;;;;;;;19.60;100.00;100448.69;5032447;28;19956;-72
2023/10/13 10:12:28;;;;;;;;;;;;;;;19.62;100.00;100452.09;5028757;28;19936;-74
2023/10/13 10:14:56;;;;;;;;;;;;;;;19.62;100.00;100446.63;5024753;28;20037;-74
2023/10/13 10:17:22;;;;;;;;;;;;;;;19.65;100.00;100450.88;5021591;28;19921;-72
2023/10/13 10:19:48;;;;;;;;;;;;;;;19.68;100.00;100442.34;5029613;28;19925;-72
2023/10/13 10:22:20;;;;;;;;;;;;;;;19.66;100.00;100427.19;5029658;28;19925;-72
2023/10/13 10:24:55;;;;;;;;;;;;;;;19.62;100.00;100429.47;5028197;28;20133;-72
2023/10/13 10:27:25;;;;;;;;;;;;;;;19.56;100.00;100435.66;5023882;28;20235;-75
2023/10/13 10:29:53;;;;;;;;;;;;;;;19.57;100.00;100424.59;5023982;28;20007;-73
2023/10/13 10:32:18;;;;;;;;;;;;;;;19.55;100.00;100414.91;5027172;28;19924;-72
2023/10/13 10:34:44;;;;;;;;;;;;;;;19.56;100.00;100414.75;5024591;28;19970;-75
2023/10/13 10:37:09;;;;;;;;;;;;;;;19.54;100.00;100410.50;5025356;28;19958;-76
2023/10/13 10:39:44;;;;;;;;;;;;;;;19.54;100.00;100405.06;5023567;28;20019;-73
2023/10/13 10:42:15;;;;;;;;;;;;;;;19.62;100.00;100403.06;5023957;28;19951;-70
2023/10/13 10:44:42;;;;;;;;;;;;;;;19.63;100.00;100382.13;5025850;28;20270;-72
2023/10/13 10:47:11;;;;;;;;;;;;;;;19.69;100.00;100394.13;5025914;28;20608;-73
2023/10/13 10:49:37;;;;;;;;;;;;;;;19.73;100.00;100388.13;5026070;28;19929;-74
2023/10/13 10:52:04;;;;;;;;;;;;;;;19.73;100.00;100398.19;5022054;28;20003;-71
2023/10/13 10:54:32;;;;;;;;;;;;;;;19.83;100.00;100400.59;5021779;28;19920;-74
2023/10/13 10:57:17;;;;;;;;;;;;;;;19.83;100.00;100389.69;5025266;28;20778;-72
2023/10/13 10:59:42;;;;;;;;;;;;;;;19.87;100.00;100399.19;5008980;28;19921;-75
2023/10/13 11:02:08;;;;;;;;;;;;;;;19.92;100.00;100356.72;5023002;28;19925;-79
2023/10/13 11:04:34;;;;;;;;;;;;;;;20.15;100.00;100387.56;5027784;28;19924;-73
2023/10/13 11:06:59;;;;;;;;;;;;;;;20.17;100.00;100380.88;5032592;28;19921;-74
2023/10/13 11:11:52;;;;;;;;;;;;;;;20.28;100.00;100367.78;5028204;28;19928;-73
2023/10/13 11:14:25;;;;;;;;;;;;;;;20.34;100.00;100400.53;5030600;28;19928;-71
2023/10/13 11:16:53;;;;;;;;;;;;;;;20.40;100.00;100379.81;5024330;28;19921;-72
2023/10/13 11:19:25;;;;;;;;;;;;;;;20.61;100.00;100389.88;5029220;28;19939;-72
2023/10/13 11:21:52;;;;;;;;;;;;;;;20.82;100.00;100366.34;5030013;28;19925;-72
2023/10/13 11:24:17;;;;;;;;;;;;;;;20.92;100.00;100377.78;5014603;28;20286;-72
2023/10/13 11:26:49;;;;;;;;;;;;;;;20.92;100.00;100369.59;5031290;28;19924;-73
2023/10/13 11:29:18;;;;;;;;;;;;;;;20.68;100.00;100340.84;5029400;28;21297;-72
2023/10/13 11:31:44;;;;;;;;;;;;;;;20.38;100.00;100351.94;5028374;28;20039;-74
2023/10/13 11:34:11;;;;;;;;;;;;;;;20.26;100.00;100348.88;5022235;28;19958;-73
2023/10/13 11:36:36;;;;;;;;;;;;;;;20.57;100.00;100341.41;5021666;28;20413;-73
2023/10/13 11:39:01;;;;;;;;;;;;;;;20.72;100.00;100336.66;5031239;28;20035;-77
2023/10/13 11:41:33;;;;;;;;;;;;;;;20.88;100.00;100346.47;5023534;28;20485;-73
2023/10/13 11:49:06;;;;;;;;;;;;;;;20.96;100.00;100323.63;5044401;28;19946;-75
2023/10/13 11:51:32;;;;;;;;;;;;;;;21.11;100.00;100321.63;5026725;28;19920;-75
2023/10/13 11:53:58;;;;;;;;;;;;;;;21.37;100.00;100306.41;5007824;28;19961;-73
2023/10/13 11:56:24;;;;;;;;;;;;;;;21.37;100.00;100320.06;5028169;28;19924;-75
2023/10/13 11:58:49;;;;;;;;;;;;;;;21.33;100.00;100298.81;5029132;28;19934;-72
2023/10/13 12:11:50;;;;;;;;;;;;;;;21.55;100.00;100277.69;5002365;28;20005;-74
2023/10/13 12:14:21;;;;;;;;;;;;;;;21.55;100.00;100270.34;5043914;28;20031;-74
2023/10/13 12:16:52;;;;;;;;;;;;;;;21.51;100.00;100276.41;5046626;28;20413;-72
2023/10/13 12:19:23;;;;;;;;;;;;;;;21.54;100.00;100259.63;5045019;28;19920;-72
2023/10/13 12:21:48;;;;;;;;;;;;;;;21.57;100.00;100281.91;5049411;28;19926;-75
2023/10/13 12:26:58;;;;;;;;;;;;;;;21.75;100.00;100277.78;5031943;28;19943;-75
2023/10/13 12:29:27;;;;;;;;;;;;;;;21.84;100.00;100260.16;5043820;28;20359;-76
2023/10/13 12:32:05;;;;;;;;;;;;;;;21.82;100.00;100285.97;5026816;28;19921;-74
2023/10/13 12:34:57;;;;;;;;;;;;;;;21.85;100.00;100245.41;5043165;28;20296;-72
2023/10/13 12:51:40;;;;;;;;;;;;;;;21.74;100.00;100262.44;5031026;28;19931;-73
2023/10/13 12:54:06;;;;;;;;;;;;;;;21.75;100.00;100257.78;5032455;28;19928;-72
2023/10/13 12:56:31;;;;;;;;;;;;;;;21.83;100.00;100254.88;5028523;28;19931;-73
2023/10/13 12:58:56;;;;;;;;;;;;;;;21.86;100.00;100238.06;5024760;28;19920;-72
2023/10/13 13:01:22;;;;;;;;;;;;;;;21.91;100.00;100246.47;5013401;28;19920;-73
2023/10/13 13:03:55;;;;;;;;;;;;;;;21.94;100.00;100247.94;5031093;28;20034;-74
2023/10/13 13:06:29;;;;;;;;;;;;;;;21.97;100.00;100255.72;5031536;28;19923;-72
2023/10/13 13:08:55;;;;;;;;;;;;;;;21.93;100.00;100255.31;5028884;28;20698;-73
2023/10/13 13:11:20;;;;;;;;;;;;;;;21.96;100.00;100257.63;5030512;28;19927;-76
2023/10/13 13:13:46;;;;;;;;;;;;;;;21.99;100.00;100254.44;5022969;28;19924;-72
2023/10/13 13:16:11;;;;;;;;;;;;;;;21.98;100.00;100247.31;5047044;28;20381;-72
2023/10/13 13:18:37;;;;;;;;;;;;;;;21.95;100.00;100258.69;5029350;28;19971;-75
2023/10/13 13:21:06;;;;;;;;;;;;;;;21.93;100.00;100244.38;5030902;28;19925;-74
2023/10/13 13:23:31;;;;;;;;;;;;;;;21.91;100.00;100241.03;5027720;28;19921;-77
2023/10/13 13:25:56;;;;;;;;;;;;;;;21.92;100.00;100231.78;5027522;28;20037;-74
2023/10/13 13:28:24;;;;;;;;;;;;;;;21.96;100.00;100232.19;5028512;28;19970;-72
2023/10/13 13:30:50;;;;;;;;;;;;;;;21.90;100.00;100238.47;5047582;28;20317;-74
2023/10/13 13:33:16;;;;;;;;;;;;;;;21.93;100.00;100244.38;5028570;28;20376;-72
2023/10/13 13:35:43;;;;;;;;;;;;;;;22.07;100.00;100249.84;5026397;28;20191;-74
2023/10/13 13:38:21;;;;;;;;;;;;;;;22.12;100.00;100247.31;5028882;28;20197;-75
2023/10/13 13:40:49;;;;;;;;;;;;;;;22.03;100.00;100235.75;5030693;28;20233;-72
2023/10/13 13:43:31;;;;;;;;;;;;;;;22.07;100.00;100228.84;5026613;28;20264;-73
2023/10/13 13:46:00;;;;;;;;;;;;;;;22.01;100.00;100227.75;5031430;28;19963;-73
2023/10/13 13:48:27;;;;;;;;;;;;;;;21.91;100.00;100235.56;5027835;28;19925;-74
2023/10/13 13:50:55;;;;;;;;;;;;;;;21.83;100.00;100222.94;5030154;28;19924;-73
2023/10/13 13:53:27;;;;;;;;;;;;;;;21.86;100.00;100216.22;5008986;28;19943;-75
2023/10/13 13:55:52;;;;;;;;;;;;;;;21.91;100.00;100230.09;5028024;28;19959;-72
2023/10/13 13:58:17;;;;;;;;;;;;;;;21.84;100.00;100229.22;5029852;28;20059;-70
2023/10/13 14:00:48;;;;;;;;;;;;;;;21.77;100.00;100228.38;5046706;28;19927;-75
2023/10/13 14:03:30;;;;;;;;;;;;;;;21.65;100.00;100226.28;5026604;28;20639;-72
2023/10/13 14:05:58;;;;;;;;;;;;;;;21.53;100.00;100220.56;5031409;28;19928;-75
2023/10/13 14:08:25;;;;;;;;;;;;;;;21.45;100.00;100230.84;5029603;28;19929;-73
2023/10/13 14:13:50;;;;;;;;;;;;;;;21.50;100.00;100237.34;5041822;28;19926;-78
2023/10/13 14:16:16;;;;;;;;;;;;;;;21.54;100.00;100207.72;5045302;28;19920;-76
2023/10/13 14:18:48;;;;;;;;;;;;;;;21.54;100.00;100227.72;5027750;28;20263;-74
2023/10/13 14:21:19;;;;;;;;;;;;;;;21.64;100.00;100223.75;5031446;28;19926;-74
2023/10/13 14:23:48;;;;;;;;;;;;;;;21.65;100.00;100219.97;5051443;28;19959;-73
2023/10/13 14:26:14;;;;;;;;;;;;;;;21.73;100.00;100227.97;5044461;28;20003;-72
2023/10/13 14:28:50;;;;;;;;;;;;;;;21.66;100.00;100235.31;5041952;28;19934;-73
2023/10/13 14:31:15;;;;;;;;;;;;;;;21.67;100.00;100224.19;5025827;28;20310;-74
2023/10/13 14:33:40;;;;;;;;;;;;;;;21.71;100.00;100222.72;5047923;28;20364;-73
2023/10/13 14:36:06;;;;;;;;;;;;;;;21.76;100.00;100226.69;5043459;28;20817;-74
2023/10/13 14:38:31;;;;;;;;;;;;;;;21.75;100.00;100227.75;5027241;28;20435;-74
2023/10/13 14:40:57;;;;;;;;;;;;;;;21.64;100.00;100245.59;5042709;28;19928;-75
2023/10/13 14:43:27;;;;;;;;;;;;;;;21.70;100.00;100229.25;5049189;28;19956;-78
2023/10/13 14:45:52;;;;;;;;;;;;;;;21.69;100.00;100215.78;5044031;28;19924;-74
2023/10/13 14:48:17;;;;;;;;;;;;;;;21.72;100.00;100218.91;5021829;28;20786;-72
2023/10/13 14:50:42;;;;;;;;;;;;;;;21.66;100.00;100222.50;5046008;28;20033;-72
2023/10/13 14:53:08;;;;;;;;;;;;;;;21.53;100.00;100236.09;5046224;28;19921;-74
2023/10/13 14:55:39;;;;;;;;;;;;;;;21.56;100.00;100219.28;5052382;28;20101;-73
2023/10/13 14:58:04;;;;;;;;;;;;;;;21.58;100.00;100236.31;5052404;28;19929;-73
2023/10/13 15:00:31;;;;;;;;;;;;;;;21.56;100.00;100243.88;5049673;28;19968;-76
2023/10/13 15:02:56;;;;;;;;;;;;;;;21.60;100.00;100238.81;5056909;28;19958;-75
2023/10/13 15:05:22;;;;;;;;;;;;;;;21.62;100.00;100234.88;5046485;28;19928;-75
2023/10/13 15:07:47;;;;;;;;;;;;;;;21.50;100.00;100241.97;5045763;28;20301;-74
2023/10/13 15:10:14;;;;;;;;;;;;;;;21.42;100.00;100238.41;5045121;28;20366;-74
2023/10/13 15:12:40;;;;;;;;;;;;;;;21.38;100.00;100247.19;5062836;28;19916;-73
2023/10/13 15:15:13;;;;;;;;;;;;;;;21.34;100.00;100224.06;5060871;28;19925;-73
2023/10/13 15:17:39;;;;;;;;;;;;;;;21.10;100.00;100227.16;5062330;28;20727;-73
2023/10/13 15:20:08;;;;;;;;;;;;;;;21.00;100.00;100234.88;5043610;28;19974;-72
2023/10/13 15:22:34;;;;;;;;;;;;;;;20.85;100.00;100231.44;5036897;28;20350;-72
2023/10/13 15:25:09;;;;;;;;;;;;;;;20.78;100.00;100254.06;5060699;28;20007;-73
2023/10/13 15:27:41;;;;;;;;;;;;;;;20.74;100.00;100232.84;5058488;28;19979;-73
2023/10/13 15:30:19;;;;;;;;;;;;;;;20.53;100.00;100230.00;5042544;28;19971;-73
2023/10/13 15:32:45;;;;;;;;;;;;;;;20.53;100.00;100229.13;5056611;28;19917;-74
2023/10/13 15:35:12;;;;;;;;;;;;;;;20.17;100.00;100235.59;5030046;28;19926;-75
2023/10/13 15:37:37;;;;;;;;;;;;;;;19.96;100.00;100209.22;5042394;28;20635;-74
2023/10/13 15:40:04;;;;;;;;;;;;;;;19.99;100.00;100214.28;5041709;28;19924;-76
2023/10/13 15:42:29;;;;;;;;;;;;;;;19.92;100.00;100206.91;5043102;28;20377;-75
2023/10/13 15:44:54;;;;;;;;;;;;;;;19.77;100.00;100193.31;5027375;28;19920;-70
2023/10/13 15:47:19;;;;;;;;;;;;;;;19.84;100.00;100196.13;5029406;28;19959;-72